createdAt,value
2022-08-05T00:00:18.470Z,84.358333
2022-08-05T00:06:02.681Z,84.333333
2022-08-05T00:10:18.197Z,84.295833
2022-08-05T00:15:55.578Z,84.029167
2022-08-05T00:20:20.184Z,84.000000
2022-08-05T00:25:18.189Z,84.733333
2022-08-05T00:30:18.116Z,85.412500
2022-08-05T00:35:18.188Z,85.870833
2022-08-05T00:40:27.977Z,86.045833
2022-08-05T00:45:18.120Z,86.595833
2022-08-05T00:50:18.162Z,86.991667
2022-08-05T00:55:18.982Z,87.033333
2022-08-05T01:00:20.020Z,87.312500
2022-08-05T01:05:18.076Z,87.783333
2022-08-05T01:10:18.145Z,88.087500
2022-08-05T01:15:35.255Z,88.162500
2022-08-05T01:20:18.071Z,88.620833
2022-08-05T01:25:18.292Z,88.766667
2022-08-05T01:30:18.911Z,88.966667
2022-08-05T01:35:51.318Z,87.445833
2022-08-05T01:40:18.173Z,86.350000
2022-08-05T01:45:18.132Z,85.425000
2022-08-05T01:50:18.127Z,85.325000
2022-08-05T01:55:18.138Z,84.879167
2022-08-05T02:00:18.114Z,84.970833
2022-08-05T02:05:18.271Z,85.083333
2022-08-05T02:10:18.159Z,84.395833
2022-08-05T02:15:19.629Z,84.841667
2022-08-05T02:20:20.712Z,85.616667
2022-08-05T02:25:18.443Z,86.433333
2022-08-05T02:30:18.071Z,86.679167
2022-08-05T02:35:19.153Z,86.983333
2022-08-05T02:40:18.089Z,87.537500
2022-08-05T02:45:18.335Z,87.833333
2022-08-05T02:50:18.292Z,87.908333
2022-08-05T02:55:48.343Z,88.250000
2022-08-05T03:00:18.074Z,88.525000
2022-08-05T03:05:21.881Z,88.662500
2022-08-05T03:06:54.113Z,88.662500
2022-08-05T03:10:22.080Z,88.350000
2022-08-05T03:15:18.095Z,88.462500
2022-08-05T03:20:18.085Z,88.583333
2022-08-05T03:25:32.907Z,88.504167
2022-08-05T03:30:18.101Z,88.680000
2022-08-05T03:35:18.108Z,88.387500
2022-08-05T03:40:31.241Z,88.625000
2022-08-05T03:45:21.385Z,87.783333
2022-08-05T03:50:18.189Z,87.812500
2022-08-05T03:56:05.199Z,88.012000
2022-08-05T04:00:18.379Z,87.391667
2022-08-05T04:05:18.185Z,87.833333
2022-08-05T04:10:18.455Z,88.676000
2022-08-05T04:15:18.139Z,88.225000
2022-08-05T04:20:19.922Z,88.716667
2022-08-05T04:25:18.118Z,87.104167
2022-08-05T04:30:18.179Z,86.450000
2022-08-05T04:35:19.798Z,86.812500
2022-08-05T04:40:19.584Z,87.404167
2022-08-05T04:45:22.878Z,88.012500
2022-08-05T04:50:37.309Z,87.766667
2022-08-05T04:55:49.805Z,87.316667
2022-08-05T05:00:18.159Z,86.233333
2022-08-05T05:05:28.323Z,83.741667
2022-08-05T05:10:18.073Z,84.491667
2022-08-05T05:15:56.451Z,84.295833
2022-08-05T05:20:18.125Z,81.041667
2022-08-05T05:25:18.086Z,80.391667
2022-08-05T05:30:29.292Z,76.700000
2022-08-05T05:35:19.806Z,73.612500
2022-08-05T05:40:18.115Z,72.820833
2022-08-05T05:45:18.062Z,72.991667
2022-08-05T05:50:19.811Z,73.945833
2022-08-05T05:55:18.077Z,74.308333
2022-08-05T06:00:18.091Z,74.600000
2022-08-05T06:05:20.482Z,74.091667
2022-08-05T06:10:18.441Z,74.087500
2022-08-05T06:15:24.110Z,73.729167
2022-08-05T06:20:18.885Z,74.091667
2022-08-05T06:25:24.947Z,74.037500
2022-08-05T06:30:21.188Z,72.745833
2022-08-05T06:36:03.746Z,72.400000
2022-08-05T06:40:21.439Z,71.483333
2022-08-05T06:45:20.902Z,72.391667
2022-08-05T06:50:18.041Z,72.754167
2022-08-05T06:55:18.207Z,72.062500
2022-08-05T07:00:24.571Z,71.479167
2022-08-05T07:05:18.841Z,71.462500
2022-08-05T07:10:18.115Z,70.500000
2022-08-05T07:15:34.790Z,70.775000
2022-08-05T07:20:32.909Z,70.683333
2022-08-05T07:25:54.111Z,70.458333
2022-08-05T07:30:27.320Z,70.420833
2022-08-05T07:36:02.438Z,70.520833
2022-08-05T07:40:32.081Z,70.000000
2022-08-05T07:45:18.069Z,69.200000
2022-08-05T07:50:18.052Z,69.304167
2022-08-05T07:56:05.004Z,69.045833
2022-08-05T08:00:18.044Z,69.037500
2022-08-05T08:05:18.188Z,69.379167
2022-08-05T08:10:20.747Z,66.900000
2022-08-05T08:15:18.032Z,68.433333
2022-08-05T08:20:43.308Z,65.166667
2022-08-05T08:25:18.155Z,67.241667
2022-08-05T08:30:30.111Z,65.441667
2022-08-05T08:35:18.102Z,65.458333
2022-08-05T08:40:18.044Z,64.870833
2022-08-05T08:45:26.945Z,64.466667
2022-08-05T08:50:30.637Z,64.272000
2022-08-05T08:55:19.659Z,63.933333
2022-08-05T09:00:19.448Z,62.620833
2022-08-05T09:05:18.525Z,60.316667
2022-08-05T09:10:18.302Z,62.708333
2022-08-05T09:15:18.076Z,63.154167
2022-08-05T09:20:36.686Z,61.612500
2022-08-05T09:25:24.388Z,60.833333
2022-08-05T09:30:18.037Z,61.212500
2022-08-05T09:35:26.303Z,59.208333
2022-08-05T09:40:18.223Z,59.437500
2022-08-05T09:46:07.105Z,61.666667
2022-08-05T09:50:37.331Z,59.854167
2022-08-05T09:55:57.524Z,58.554167
2022-08-05T09:56:23.428Z,58.554167
2022-08-05T10:00:17.976Z,58.733333
2022-08-05T10:05:18.008Z,58.337500
2022-08-05T10:10:18.082Z,57.541667
2022-08-05T10:15:20.011Z,58.270833
2022-08-05T10:20:18.283Z,57.525000
2022-08-05T10:25:18.017Z,57.025000
2022-08-05T10:31:19.959Z,56.762500
2022-08-05T10:32:52.207Z,56.762500
2022-08-05T10:32:54.722Z,56.762500
2022-08-05T10:35:18.137Z,55.266667
2022-08-05T10:40:19.552Z,54.008333
2022-08-05T10:45:23.779Z,53.475000
2022-08-05T10:50:36.103Z,52.108333
2022-08-05T10:55:18.537Z,53.391667
2022-08-05T11:00:20.041Z,53.050000
2022-08-05T11:05:18.423Z,51.912500
2022-08-05T11:10:18.280Z,51.500000
2022-08-05T11:15:20.502Z,51.054167
2022-08-05T11:20:18.709Z,52.212500
2022-08-05T11:26:03.258Z,51.687500
2022-08-05T11:30:18.012Z,52.329167
2022-08-05T11:35:18.027Z,51.520833
2022-08-05T11:40:18.315Z,53.816667
2022-08-05T11:46:14.557Z,53.750000
2022-08-05T11:50:18.022Z,52.566667
2022-08-05T11:55:18.032Z,51.787500
2022-08-05T12:00:17.994Z,51.466667
2022-08-05T12:05:18.677Z,51.348000
2022-08-05T12:10:18.038Z,52.333333
2022-08-05T12:15:18.074Z,52.675000
2022-08-05T12:20:33.078Z,50.883333
2022-08-05T12:25:18.050Z,51.270833
2022-08-05T12:30:18.016Z,52.329167
2022-08-05T12:35:21.690Z,51.516667
2022-08-05T12:40:26.519Z,50.570833
2022-08-05T12:45:17.973Z,51.858333
2022-08-05T12:50:19.755Z,49.100000
2022-08-05T12:55:18.010Z,47.791667
2022-08-05T13:02:01.797Z,49.136000
2022-08-05T13:02:02.133Z,49.136000
2022-08-05T13:05:17.991Z,47.495833
2022-08-05T13:10:19.594Z,46.333333
2022-08-05T13:15:24.597Z,45.258333
2022-08-05T13:20:23.617Z,45.758333
2022-08-05T13:25:18.864Z,46.750000
2022-08-05T13:30:34.837Z,47.883333
2022-08-05T13:35:22.160Z,47.350000
2022-08-05T13:40:35.663Z,47.466667
2022-08-05T13:45:21.389Z,47.208333
2022-08-05T13:50:17.948Z,47.191667
2022-08-05T13:55:40.834Z,47.550000
2022-08-05T14:00:18.015Z,46.800000
2022-08-05T14:05:19.540Z,44.979167
2022-08-05T14:10:18.880Z,44.716667
2022-08-05T14:16:04.742Z,47.266667
2022-08-05T14:20:18.458Z,44.354167
2022-08-05T14:25:21.905Z,45.083333
2022-08-05T14:30:20.331Z,46.375000
2022-08-05T14:35:20.524Z,46.333333
2022-08-05T14:40:17.964Z,46.445833
2022-08-05T14:45:18.166Z,47.212500
2022-08-05T14:50:19.387Z,47.816667
2022-08-05T14:55:18.018Z,48.475000
2022-08-05T15:00:19.897Z,48.495833
2022-08-05T15:05:17.956Z,48.312500
2022-08-05T15:10:17.967Z,46.416667
2022-08-05T15:15:17.986Z,46.487500
2022-08-05T15:20:19.240Z,45.408333
2022-08-05T15:25:23.689Z,44.383333
2022-08-05T15:30:18.273Z,44.891667
2022-08-05T15:35:18.274Z,46.050000
2022-08-05T15:41:01.277Z,46.895833
2022-08-05T15:41:24.488Z,46.895833
2022-08-05T15:45:18.696Z,45.816667
2022-08-05T15:50:18.147Z,45.312500
2022-08-05T15:55:18.495Z,44.991667
2022-08-05T16:00:26.396Z,44.183333
2022-08-05T16:05:18.196Z,44.595833
2022-08-05T16:10:25.335Z,44.670833
2022-08-05T16:15:18.668Z,44.583333
2022-08-05T16:20:18.076Z,45.295833
2022-08-05T16:25:17.934Z,46.487500
2022-08-05T16:30:25.857Z,47.095833
2022-08-05T16:35:18.062Z,47.275000
2022-08-05T16:40:26.691Z,47.579167
2022-08-05T16:46:03.613Z,54.229167
2022-08-05T16:50:17.953Z,59.266667
2022-08-05T16:55:18.032Z,62.291667
2022-08-05T17:00:25.953Z,63.866667
2022-08-05T17:05:18.294Z,65.666667
2022-08-05T17:10:18.042Z,67.000000
2022-08-05T17:15:19.663Z,68.000000
2022-08-05T17:20:17.986Z,69.412500
2022-08-05T17:25:33.845Z,70.733333
2022-08-05T17:30:18.658Z,71.958333
2022-08-05T17:35:20.569Z,73.208000
2022-08-05T17:40:18.117Z,74.229167
2022-08-05T17:45:21.186Z,75.083333
2022-08-05T17:50:17.956Z,75.156000
2022-08-05T17:55:18.353Z,75.862500
2022-08-05T18:00:18.753Z,77.083333
2022-08-05T18:05:18.228Z,77.987500
2022-08-05T18:10:21.044Z,78.725000
2022-08-05T18:15:18.013Z,79.454167
2022-08-05T18:20:18.041Z,79.729167
2022-08-05T18:25:17.949Z,79.391667
2022-08-05T18:30:18.029Z,78.875000
2022-08-05T18:35:17.941Z,78.116667
2022-08-05T18:41:50.162Z,77.644000
2022-08-05T18:41:56.290Z,77.644000
2022-08-05T18:45:17.947Z,77.554167
2022-08-05T18:50:17.949Z,77.575000
2022-08-05T18:55:17.965Z,77.775000
2022-08-05T19:00:20.638Z,77.525000
2022-08-05T19:06:11.728Z,76.925000
2022-08-05T19:06:34.167Z,76.925000
2022-08-05T19:10:17.961Z,75.983333
2022-08-05T19:15:56.885Z,75.212500
2022-08-05T19:20:17.947Z,73.704167
2022-08-05T19:25:29.582Z,72.708333
2022-08-05T19:30:18.025Z,72.500000
2022-08-05T19:35:17.987Z,72.670833
2022-08-05T19:40:18.106Z,73.204167
2022-08-05T19:45:18.071Z,73.666667
2022-08-05T19:50:17.922Z,74.100000
2022-08-05T19:56:13.955Z,74.270833
2022-08-05T19:56:27.534Z,74.270833
2022-08-05T20:00:18.224Z,74.391667
2022-08-05T20:05:24.487Z,74.583333
2022-08-05T20:10:19.177Z,74.912500
2022-08-05T20:15:48.575Z,74.983333
2022-08-05T20:20:17.894Z,75.104167
2022-08-05T20:25:17.927Z,74.845833
2022-08-05T20:30:18.339Z,74.341667
2022-08-05T20:35:17.849Z,74.208333
2022-08-05T20:40:18.092Z,74.475000
2022-08-05T20:45:17.880Z,74.304167
2022-08-05T20:50:17.933Z,74.100000
2022-08-05T20:56:02.763Z,73.970833
2022-08-05T21:00:35.103Z,73.412500
2022-08-05T21:05:17.880Z,73.087500
2022-08-05T21:10:17.938Z,71.950000
2022-08-05T21:15:18.002Z,71.191667
2022-08-05T21:20:33.511Z,70.791667
2022-08-05T21:25:17.900Z,70.383333
2022-08-05T21:30:17.939Z,70.416667
2022-08-05T21:35:30.295Z,70.591667
2022-08-05T21:40:17.982Z,71.104167
2022-08-05T21:45:24.695Z,72.575000
2022-08-05T21:50:18.247Z,74.750000
2022-08-05T21:55:18.265Z,77.150000
2022-08-05T22:00:17.892Z,79.333333
2022-08-05T22:05:18.192Z,79.770833
2022-08-05T22:10:17.857Z,81.383333
2022-08-05T22:16:00.852Z,83.341667
2022-08-05T22:20:17.927Z,83.979167
2022-08-05T22:25:23.985Z,84.958333
2022-08-05T22:30:17.798Z,85.304167
2022-08-05T22:35:17.988Z,85.316667
2022-08-05T22:40:20.536Z,85.258333
2022-08-05T22:45:17.930Z,85.083333
2022-08-05T22:50:23.504Z,84.866667
2022-08-05T22:55:18.638Z,85.225000
2022-08-05T23:00:20.974Z,86.408333
2022-08-05T23:05:18.199Z,87.054167
2022-08-05T23:10:19.866Z,87.600000
2022-08-05T23:15:18.088Z,87.883333
2022-08-05T23:20:18.260Z,88.425000
2022-08-05T23:25:50.962Z,88.800000
2022-08-05T23:30:18.182Z,89.054167
2022-08-05T23:35:18.005Z,89.245833
2022-08-05T23:40:17.949Z,89.600000
2022-08-05T23:45:18.254Z,89.912500
2022-08-05T23:50:20.237Z,90.100000
2022-08-05T23:55:18.114Z,90.045833
